Airport View

Enter AWOS ICAO identifier for current METAR.

ex. KFNL

KBOS 040454Z 13003KT 10SM SCT120 BKN250 23/18 A3007 RMK AO2 SLP181 T02330178 403330233

4 Aug 2020 05:52

Phone: 617-567-5762

Other Area AWOS: KMQE - KOWD - KBVY - KBED

TAF KBOS 032339Z 0400/0506 28010KT P6SM FEW200 FM041100 16004KT P6SM BKN200 FM042200 15012G22KT P6SM -SHRA OVC035 FM050100 16027G37KT P6SM SHRA OVC020 FM050500 18017G27KT P6SM SHRA OVC035